Time;durP1;ratioP1;P1;durP2;ratioP2;P2;SDS_P1;SDS_P2;PMS_P1;PMS_P2;Temp;Humidity;BMP_temperature;BMP_pressure;BME280_temperature;BME280_humidity;BME280_pressure;Samples;Min_cycle;Max_cycle;Signal;HPM_P1;HPM_P2
2023/04/08 00:02:14;;;;;;;9.30;6.55;;;6.40;99.90;;;;;;5031195;28;20044;-81
2023/04/08 00:04:40;;;;;;;11.38;6.93;;;6.40;99.90;;;;;;5023390;28;20110;-81
2023/04/08 00:07:06;;;;;;;12.82;7.55;;;6.40;99.90;;;;;;5026862;28;20053;-81
2023/04/08 00:09:31;;;;;;;12.18;6.90;;;6.30;99.90;;;;;;5022073;28;20051;-81
2023/04/08 00:11:57;;;;;;;11.98;6.43;;;6.40;99.90;;;;;;5021795;28;20816;-81
2023/04/08 00:14:23;;;;;;;13.93;7.68;;;6.30;99.90;;;;;;5009462;28;20569;-81
2023/04/08 00:16:49;;;;;;;13.20;7.03;;;6.30;99.90;;;;;;5023080;28;20179;-81
2023/04/08 00:19:14;;;;;;;13.32;7.75;;;6.30;99.90;;;;;;5024600;28;20047;-81
2023/04/08 00:21:40;;;;;;;13.82;8.38;;;6.30;99.90;;;;;;5022351;28;20140;-81
2023/04/08 00:24:06;;;;;;;15.13;8.57;;;6.30;99.90;;;;;;5023185;28;20562;-81
2023/04/08 00:26:32;;;;;;;12.15;7.30;;;6.20;99.90;;;;;;5020026;28;20048;-81
2023/04/08 00:28:57;;;;;;;16.98;8.63;;;6.20;99.90;;;;;;5017229;28;20604;-81
2023/04/08 00:31:23;;;;;;;13.30;7.95;;;6.20;99.90;;;;;;5025286;28;20048;-81
2023/04/08 00:33:49;;;;;;;10.32;7.10;;;6.20;99.90;;;;;;5025770;28;20094;-81
2023/04/08 00:36:15;;;;;;;13.98;7.50;;;6.10;99.90;;;;;;5031188;28;20144;-81
2023/04/08 00:38:41;;;;;;;12.55;7.78;;;6.10;99.90;;;;;;5024846;28;20067;-81
2023/04/08 00:41:06;;;;;;;12.30;7.70;;;6.10;99.90;;;;;;5024073;28;20129;-81
2023/04/08 00:43:32;;;;;;;12.32;7.82;;;6.10;99.90;;;;;;5027675;28;20048;-81
2023/04/08 00:45:57;;;;;;;11.70;8.02;;;6.10;99.90;;;;;;5025265;28;20381;-81
2023/04/08 00:48:23;;;;;;;12.13;8.35;;;6.10;99.90;;;;;;5031842;28;20079;-81
2023/04/08 00:50:49;;;;;;;13.27;8.93;;;6.10;99.90;;;;;;5010375;28;20073;-81
2023/04/08 00:53:17;;;;;;;14.63;8.45;;;6.10;99.90;;;;;;5027693;28;20103;-81
2023/04/08 00:55:43;;;;;;;13.77;8.85;;;6.00;99.90;;;;;;5033220;28;20037;-81
2023/04/08 00:58:09;;;;;;;13.52;8.88;;;6.00;99.90;;;;;;5033064;28;20518;-81
2023/04/08 01:00:37;;;;;;;13.73;8.82;;;6.00;99.90;;;;;;5031055;28;20116;-81
2023/04/08 01:03:19;;;;;;;12.88;8.13;;;5.90;99.90;;;;;;5033874;28;20059;-81
2023/04/08 01:06:00;;;;;;;11.35;7.47;;;6.00;99.90;;;;;;5025768;28;20044;-81
2023/04/08 01:08:30;;;;;;;14.27;8.98;;;5.90;99.90;;;;;;5031905;28;20041;-81
2023/04/08 01:11:00;;;;;;;12.98;8.82;;;5.90;99.90;;;;;;5024222;28;20158;-80
2023/04/08 01:13:32;;;;;;;12.73;8.30;;;5.90;99.90;;;;;;5026837;28;20072;-81
2023/04/08 01:15:58;;;;;;;13.70;9.15;;;5.90;99.90;;;;;;5026356;28;20056;-81
2023/04/08 01:18:28;;;;;;;14.23;9.32;;;5.80;99.90;;;;;;5036803;28;20041;-81
2023/04/08 01:20:54;;;;;;;13.85;9.05;;;5.80;99.90;;;;;;5030709;28;20045;-81
2023/04/08 01:23:42;;;;;;;13.70;8.93;;;5.80;99.90;;;;;;5011081;28;20049;-81
2023/04/08 01:26:20;;;;;;;16.42;9.85;;;5.80;99.90;;;;;;5020764;28;20498;-81
2023/04/08 01:28:47;;;;;;;16.85;9.32;;;5.80;99.90;;;;;;5032117;28;20499;-81
2023/04/08 01:31:14;;;;;;;14.25;9.23;;;5.80;99.90;;;;;;5026902;28;20061;-81
2023/04/08 01:33:41;;;;;;;14.30;9.52;;;5.80;99.90;;;;;;5017277;28;20395;-81
2023/04/08 01:36:09;;;;;;;15.02;9.68;;;5.70;99.90;;;;;;5025362;28;20037;-81
2023/04/08 01:38:36;;;;;;;13.50;9.20;;;5.70;99.90;;;;;;5022608;28;20048;-81
2023/04/08 01:41:04;;;;;;;17.05;9.82;;;5.70;99.90;;;;;;5030389;28;20745;-81
2023/04/08 01:43:32;;;;;;;14.40;9.38;;;5.60;99.90;;;;;;5024337;28;20135;-81
2023/04/08 01:46:00;;;;;;;14.85;9.35;;;5.10;99.90;;;;;;5026307;28;20052;-81
2023/04/08 01:48:27;;;;;;;18.20;10.20;;;5.60;99.90;;;;;;5027554;28;20076;-81
2023/04/08 01:50:54;;;;;;;16.38;10.23;;;5.50;99.90;;;;;;5027724;28;20038;-81
2023/04/08 01:53:20;;;;;;;14.98;10.20;;;5.50;99.90;;;;;;5033315;28;20037;-81
2023/04/08 01:55:51;;;;;;;15.13;9.40;;;5.40;99.90;;;;;;5029319;28;20045;-81
2023/04/08 01:58:21;;;;;;;19.60;11.38;;;5.40;99.90;;;;;;5028312;28;20048;-81
2023/04/08 02:00:48;;;;;;;17.17;10.20;;;5.30;99.90;;;;;;5032712;28;20064;-81
2023/04/08 02:03:17;;;;;;;15.00;9.75;;;5.30;99.90;;;;;;5029283;28;20083;-81
2023/04/08 02:05:43;;;;;;;16.17;10.35;;;5.30;99.90;;;;;;5024942;28;20083;-81
2023/04/08 02:08:09;;;;;;;16.88;11.32;;;5.30;99.90;;;;;;5021004;28;20796;-81
2023/04/08 02:10:34;;;;;;;14.70;9.70;;;5.30;99.90;;;;;;5029994;28;20094;-81
2023/04/08 02:13:02;;;;;;;18.88;11.25;;;5.20;99.90;;;;;;5024580;28;20088;-81
2023/04/08 02:15:32;;;;;;;17.85;10.60;;;5.20;99.90;;;;;;5029064;28;20095;-81
2023/04/08 02:18:14;;;;;;;17.20;10.38;;;5.20;99.90;;;;;;5024213;28;20507;-81
2023/04/08 02:20:43;;;;;;;19.27;11.32;;;5.10;99.90;;;;;;5023026;28;20077;-81
2023/04/08 02:23:18;;;;;;;16.08;9.95;;;5.10;99.90;;;;;;5026841;28;20053;-81
2023/04/08 02:25:48;;;;;;;22.58;11.00;;;5.10;99.90;;;;;;5028139;28;20056;-81
2023/04/08 02:28:16;;;;;;;19.73;12.43;;;5.10;99.90;;;;;;5021265;28;20060;-81
2023/04/08 02:30:47;;;;;;;18.02;10.93;;;5.10;99.90;;;;;;5027226;28;20124;-81
2023/04/08 02:33:14;;;;;;;19.85;11.68;;;5.00;99.90;;;;;;5035867;28;20533;-81
2023/04/08 02:35:40;;;;;;;18.45;11.80;;;5.00;99.90;;;;;;5028080;28;20609;-81
2023/04/08 02:38:07;;;;;;;19.17;11.70;;;5.00;99.90;;;;;;5027130;28;20041;-81
2023/04/08 02:40:34;;;;;;;19.80;12.63;;;5.00;99.90;;;;;;5030872;28;20056;-81
2023/04/08 02:43:00;;;;;;;18.20;10.90;;;5.00;99.90;;;;;;5032185;28;20036;-81
2023/04/08 02:45:30;;;;;;;20.63;11.38;;;5.10;99.90;;;;;;5010402;28;20639;-81
2023/04/08 02:47:56;;;;;;;22.17;12.93;;;5.00;99.90;;;;;;5030073;28;20053;-81
2023/04/08 02:50:21;;;;;;;21.20;13.07;;;4.90;99.90;;;;;;5025736;28;20100;-81
2023/04/08 02:52:47;;;;;;;17.83;10.88;;;4.90;99.90;;;;;;5029222;28;20475;-81
2023/04/08 02:55:12;;;;;;;19.48;11.90;;;4.90;99.90;;;;;;5012755;28;20048;-81
2023/04/08 02:57:40;;;;;;;19.52;12.23;;;4.90;99.90;;;;;;5027185;28;20109;-81
2023/04/08 03:00:06;;;;;;;22.02;12.88;;;4.20;99.90;;;;;;5028509;28;20506;-81
2023/04/08 03:02:32;;;;;;;19.55;11.63;;;4.90;99.90;;;;;;5021579;28;20479;-82
2023/04/08 03:04:58;;;;;;;20.70;11.68;;;4.90;99.90;;;;;;5030181;28;20051;-81
2023/04/08 03:07:24;;;;;;;20.05;12.27;;;4.90;99.90;;;;;;5023945;28;20046;-81
2023/04/08 03:09:50;;;;;;;20.10;12.88;;;4.80;99.90;;;;;;5023078;28;20107;-81
2023/04/08 03:12:16;;;;;;;21.98;14.02;;;4.80;99.90;;;;;;5019449;28;20040;-81
2023/04/08 03:14:42;;;;;;;21.45;13.73;;;4.80;99.90;;;;;;5022944;28;20048;-81
2023/04/08 03:17:10;;;;;;;19.70;11.82;;;5.10;99.90;;;;;;5020799;28;20471;-81
2023/04/08 03:19:36;;;;;;;19.35;12.68;;;4.80;99.90;;;;;;5025093;28;20052;-80
2023/04/08 03:22:02;;;;;;;18.92;11.70;;;4.80;99.90;;;;;;5026368;28;20487;-81
2023/04/08 03:24:27;;;;;;;16.75;10.70;;;4.80;99.90;;;;;;5025722;28;20112;-80
2023/04/08 03:26:53;;;;;;;18.55;11.30;;;4.80;99.90;;;;;;5023428;28;20097;-81
2023/04/08 03:29:19;;;;;;;18.73;10.88;;;4.80;99.90;;;;;;5021102;28;20514;-80
2023/04/08 03:31:45;;;;;;;17.52;11.95;;;4.80;99.90;;;;;;5026068;28;20525;-81
2023/04/08 03:34:10;;;;;;;22.25;12.13;;;4.80;99.90;;;;;;5025345;28;20106;-81
2023/04/08 03:36:36;;;;;;;19.15;12.02;;;4.80;99.90;;;;;;5023309;28;20033;-80
2023/04/08 03:39:02;;;;;;;20.30;11.35;;;4.80;99.90;;;;;;5031249;28;20045;-81
2023/04/08 03:41:28;;;;;;;20.20;12.65;;;4.70;99.90;;;;;;5022261;28;20117;-81
2023/04/08 03:43:54;;;;;;;20.58;12.95;;;4.70;99.90;;;;;;5027849;28;20044;-80
2023/04/08 03:46:21;;;;;;;18.60;11.57;;;4.70;99.90;;;;;;5033515;28;20049;-81
2023/04/08 03:48:49;;;;;;;21.92;12.93;;;4.70;99.90;;;;;;5022665;28;20049;-81
2023/04/08 03:51:15;;;;;;;24.23;13.85;;;4.70;99.90;;;;;;5030293;28;20683;-81
2023/04/08 03:53:41;;;;;;;24.85;13.60;;;4.70;99.90;;;;;;5021196;28;20041;-81
2023/04/08 03:56:07;;;;;;;23.02;14.02;;;4.70;99.90;;;;;;5026760;28;20574;-81
2023/04/08 03:58:32;;;;;;;23.20;13.82;;;4.70;99.90;;;;;;5026613;28;20091;-81
2023/04/08 04:00:58;;;;;;;17.85;11.27;;;4.70;99.90;;;;;;5031201;28;20050;-80
2023/04/08 04:03:24;;;;;;;19.00;12.52;;;4.60;99.90;;;;;;5021693;28;20041;-80
2023/04/08 04:05:50;;;;;;;20.08;11.82;;;4.60;99.90;;;;;;5027374;28;20118;-80
2023/04/08 04:08:15;;;;;;;19.38;12.18;;;4.60;99.90;;;;;;5012835;28;20071;-81
2023/04/08 04:10:41;;;;;;;18.80;12.07;;;4.60;99.90;;;;;;5026502;28;20392;-81
2023/04/08 04:13:07;;;;;;;19.98;12.15;;;4.60;99.90;;;;;;5031404;28;20103;-81
2023/04/08 04:15:32;;;;;;;21.45;12.32;;;4.60;99.90;;;;;;5020512;28;20037;-81
2023/04/08 04:17:58;;;;;;;28.00;16.00;;;4.60;99.90;;;;;;5029168;28;20607;-81
2023/04/08 04:20:24;;;;;;;22.95;12.95;;;4.60;99.90;;;;;;5025810;28;20055;-81
2023/04/08 04:22:50;;;;;;;19.52;12.40;;;4.50;99.90;;;;;;5013557;28;20068;-81
2023/04/08 04:25:16;;;;;;;21.58;13.82;;;4.50;99.90;;;;;;5027174;28;20049;-80
2023/04/08 04:27:42;;;;;;;20.95;12.18;;;4.50;99.90;;;;;;5030070;28;20041;-80
2023/04/08 04:30:08;;;;;;;22.13;13.02;;;4.50;99.90;;;;;;5025160;28;20057;-81
2023/04/08 04:32:34;;;;;;;23.45;14.57;;;4.50;99.90;;;;;;5009572;28;20990;-80
2023/04/08 04:35:00;;;;;;;22.90;13.63;;;4.50;99.90;;;;;;5013855;28;20075;-80
2023/04/08 04:37:26;;;;;;;22.67;13.68;;;4.50;99.90;;;;;;5025547;28;20483;-81
2023/04/08 04:39:52;;;;;;;22.48;13.10;;;4.50;99.90;;;;;;5029024;28;20060;-81
2023/04/08 04:42:17;;;;;;;24.50;14.02;;;4.40;99.90;;;;;;5031642;28;20053;-81
2023/04/08 04:44:43;;;;;;;26.90;13.80;;;4.40;99.90;;;;;;5027190;28;20040;-81
2023/04/08 04:47:09;;;;;;;26.05;15.68;;;4.40;99.90;;;;;;5008945;28;20045;-81
2023/04/08 04:49:34;;;;;;;25.85;15.60;;;4.40;99.90;;;;;;5026495;28;20144;-81
2023/04/08 04:52:00;;;;;;;25.23;14.43;;;4.40;99.90;;;;;;5027317;28;20042;-81
2023/04/08 04:54:26;;;;;;;25.70;14.93;;;4.40;99.90;;;;;;5032408;28;20048;-81
2023/04/08 04:56:51;;;;;;;26.33;15.13;;;4.30;99.90;;;;;;5013424;28;20056;-80
2023/04/08 04:59:17;;;;;;;23.58;14.10;;;4.30;99.90;;;;;;5024173;28;20128;-81
2023/04/08 05:01:43;;;;;;;21.33;12.40;;;4.30;99.90;;;;;;5027866;28;20049;-81
2023/04/08 05:04:08;;;;;;;25.48;15.13;;;4.30;99.90;;;;;;5031583;28;20041;-81
2023/04/08 05:06:34;;;;;;;24.92;15.02;;;4.30;99.90;;;;;;5026926;28;20120;-81
2023/04/08 05:09:00;;;;;;;24.98;14.10;;;4.20;99.90;;;;;;5026102;28;20046;-81
2023/04/08 05:11:25;;;;;;;25.02;14.27;;;4.20;99.90;;;;;;5026383;28;20155;-81
2023/04/08 05:13:51;;;;;;;26.48;14.60;;;4.30;99.90;;;;;;5025559;28;20824;-81
2023/04/08 05:16:17;;;;;;;25.60;14.80;;;4.30;99.90;;;;;;5026551;28;20820;-81
2023/04/08 05:18:42;;;;;;;26.60;14.68;;;4.30;99.90;;;;;;5025153;28;20045;-81
2023/04/08 05:21:08;;;;;;;27.67;15.48;;;4.30;99.90;;;;;;5026118;28;20078;-81
2023/04/08 05:23:34;;;;;;;28.88;15.88;;;4.30;99.90;;;;;;5034841;28;20051;-80
2023/04/08 05:26:00;;;;;;;23.92;14.02;;;4.30;99.90;;;;;;5026430;28;20530;-81
2023/04/08 05:28:26;;;;;;;26.25;14.30;;;4.30;99.90;;;;;;5030534;28;20144;-81
2023/04/08 05:30:52;;;;;;;27.58;14.77;;;4.30;99.90;;;;;;5026422;28;20503;-81
2023/04/08 05:33:18;;;;;;;23.05;12.85;;;4.40;99.90;;;;;;5026919;28;20127;-81
2023/04/08 05:35:44;;;;;;;22.92;13.88;;;4.40;99.90;;;;;;5009849;28;20045;-81
2023/04/08 05:38:10;;;;;;;26.23;14.85;;;4.40;99.90;;;;;;5024903;28;20605;-81
2023/04/08 05:40:36;;;;;;;29.10;16.23;;;4.40;99.90;;;;;;5032151;28;20042;-81
2023/04/08 05:43:01;;;;;;;27.52;14.05;;;4.50;99.90;;;;;;5028450;28;20041;-81
2023/04/08 05:45:28;;;;;;;26.80;15.27;;;4.50;99.90;;;;;;5023993;28;20073;-81
2023/04/08 05:47:53;;;;;;;27.23;14.95;;;4.60;99.90;;;;;;5022195;28;20595;-81
2023/04/08 05:50:19;;;;;;;28.63;16.45;;;4.60;99.90;;;;;;5030782;28;20044;-80
2023/04/08 05:52:45;;;;;;;27.58;15.80;;;4.70;99.90;;;;;;5025618;28;20037;-81
2023/04/08 05:55:12;;;;;;;28.90;15.88;;;4.70;99.90;;;;;;5022482;28;20156;-81
2023/04/08 05:57:38;;;;;;;30.60;17.13;;;4.80;99.90;;;;;;5020977;28;20162;-81
2023/04/08 06:00:05;;;;;;;24.90;14.70;;;4.80;99.90;;;;;;5024976;28;20090;-81
2023/04/08 06:02:30;;;;;;;28.85;15.70;;;4.90;99.90;;;;;;5025980;28;20721;-80
2023/04/08 06:04:56;;;;;;;28.02;16.30;;;5.00;99.90;;;;;;5031754;28;20609;-81
2023/04/08 06:07:22;;;;;;;29.25;17.50;;;5.00;99.90;;;;;;5013359;28;20071;-81
2023/04/08 06:09:47;;;;;;;31.20;17.98;;;5.00;99.90;;;;;;5021564;28;20041;-84
2023/04/08 06:12:13;;;;;;;25.42;14.88;;;5.10;99.90;;;;;;5024005;28;20045;-84
2023/04/08 06:14:38;;;;;;;31.15;18.08;;;5.00;99.90;;;;;;5019387;28;20537;-82
2023/04/08 06:17:05;;;;;;;34.10;19.40;;;5.10;99.90;;;;;;5026988;28;20060;-82
2023/04/08 06:19:30;;;;;;;28.00;16.55;;;5.20;99.90;;;;;;5031182;28;20053;-81
2023/04/08 06:21:57;;;;;;;29.42;17.13;;;5.20;99.90;;;;;;5023031;28;20061;-81
2023/04/08 06:24:25;;;;;;;27.75;16.70;;;5.20;99.90;;;;;;5026908;28;20048;-81
2023/04/08 06:26:52;;;;;;;30.83;17.08;;;5.20;99.90;;;;;;5022959;28;20049;-81
2023/04/08 06:29:17;;;;;;;31.80;18.27;;;5.30;99.90;;;;;;5026001;28;20619;-81
2023/04/08 06:31:43;;;;;;;31.30;18.15;;;5.30;99.90;;;;;;5026502;28;20033;-81
2023/04/08 06:34:08;;;;;;;28.35;17.13;;;5.40;99.90;;;;;;5029756;28;20102;-81
2023/04/08 06:36:34;;;;;;;30.15;18.20;;;6.10;99.90;;;;;;5022659;28;20053;-81
2023/04/08 06:38:59;;;;;;;28.55;18.08;;;5.50;99.90;;;;;;5018447;28;20128;-82
2023/04/08 06:41:25;;;;;;;32.55;19.05;;;5.60;99.90;;;;;;5026889;28;20584;-81
2023/04/08 06:43:51;;;;;;;28.40;17.05;;;5.60;99.90;;;;;;5023163;28;20776;-81
2023/04/08 06:46:16;;;;;;;30.50;18.67;;;5.60;99.90;;;;;;5022805;28;20049;-81
2023/04/08 06:48:42;;;;;;;28.85;18.00;;;5.70;99.90;;;;;;5019856;28;20045;-81
2023/04/08 06:51:07;;;;;;;29.10;17.52;;;5.80;99.90;;;;;;5024815;28;20041;-81
2023/04/08 06:53:33;;;;;;;29.30;17.40;;;6.00;99.90;;;;;;5030028;28;20079;-81
2023/04/08 06:55:59;;;;;;;29.20;17.73;;;6.10;99.90;;;;;;5020137;28;20486;-81
2023/04/08 06:58:25;;;;;;;30.48;18.63;;;6.20;99.90;;;;;;5013128;28;20574;-80
2023/04/08 07:00:52;;;;;;;29.67;16.58;;;6.20;99.90;;;;;;5028093;28;20048;-81
2023/04/08 07:03:17;;;;;;;25.92;16.52;;;6.20;99.90;;;;;;5021172;28;20037;-81
2023/04/08 07:05:43;;;;;;;26.88;16.23;;;6.10;99.90;;;;;;5024405;28;20048;-81
2023/04/08 07:08:09;;;;;;;27.80;17.10;;;6.10;99.90;;;;;;5027808;28;20099;-81
2023/04/08 07:10:35;;;;;;;26.80;15.73;;;6.20;99.90;;;;;;5021715;28;20052;-80
2023/04/08 07:13:00;;;;;;;26.67;16.02;;;6.30;99.90;;;;;;5030947;28;20043;-81
2023/04/08 07:15:26;;;;;;;24.55;15.80;;;6.30;99.90;;;;;;5027659;28;20144;-80
2023/04/08 07:17:55;;;;;;;25.08;15.25;;;6.30;99.90;;;;;;5018495;28;20049;-81
2023/04/08 07:20:21;;;;;;;24.08;15.10;;;6.40;99.90;;;;;;5020990;28;20053;-81
2023/04/08 07:22:47;;;;;;;26.40;15.75;;;6.50;99.90;;;;;;5023457;28;20049;-81
2023/04/08 07:25:13;;;;;;;23.90;15.30;;;6.60;99.90;;;;;;5022867;28;20049;-81
2023/04/08 07:27:39;;;;;;;24.10;14.30;;;6.70;99.90;;;;;;5024239;28;20107;-81
2023/04/08 07:30:06;;;;;;;23.55;14.85;;;6.70;99.90;;;;;;5023935;28;20061;-81
2023/04/08 07:32:33;;;;;;;23.80;14.93;;;6.80;99.90;;;;;;5016872;28;20041;-81
2023/04/08 07:34:59;;;;;;;23.60;14.50;;;6.80;99.90;;;;;;5032361;28;20083;-81
2023/04/08 07:37:26;;;;;;;20.90;13.82;;;6.90;99.90;;;;;;5022722;28;20045;-81
2023/04/08 07:39:51;;;;;;;25.35;15.85;;;6.90;99.90;;;;;;5018087;28;20053;-81
2023/04/08 07:42:17;;;;;;;25.70;16.23;;;6.90;99.90;;;;;;5019213;28;20033;-81
2023/04/08 07:44:44;;;;;;;24.52;14.18;;;6.90;99.90;;;;;;5009010;28;20528;-80
2023/04/08 07:47:10;;;;;;;23.67;13.88;;;7.00;99.90;;;;;;5010093;28;20537;-81
2023/04/08 07:49:37;;;;;;;21.55;13.80;;;7.10;99.90;;;;;;5024756;28;20128;-81
2023/04/08 07:52:03;;;;;;;22.67;14.43;;;7.10;99.90;;;;;;5026584;28;20116;-81
2023/04/08 07:54:30;;;;;;;25.52;14.73;;;7.10;99.90;;;;;;5031633;28;20036;-82
2023/04/08 07:56:56;;;;;;;22.73;14.02;;;7.20;99.90;;;;;;5025024;28;20041;-81
2023/04/08 07:59:21;;;;;;;20.73;13.73;;;7.20;99.90;;;;;;5029929;28;20037;-81
2023/04/08 08:01:47;;;;;;;19.17;12.57;;;7.20;99.90;;;;;;5027521;28;20084;-82
2023/04/08 08:04:13;;;;;;;20.80;12.82;;;7.30;99.90;;;;;;5025566;28;20075;-82
2023/04/08 08:06:38;;;;;;;20.80;13.45;;;7.20;99.90;;;;;;5021300;28;20788;-81
2023/04/08 08:09:04;;;;;;;24.08;13.93;;;7.20;99.90;;;;;;5029727;28;20085;-83
2023/04/08 08:11:31;;;;;;;23.52;15.05;;;7.30;99.90;;;;;;5026843;28;20147;-81
2023/04/08 08:13:57;;;;;;;22.85;13.38;;;7.30;99.90;;;;;;5030265;28;20045;-81
2023/04/08 08:16:25;;;;;;;22.33;14.15;;;7.40;99.90;;;;;;5027079;28;20498;-82
2023/04/08 08:18:51;;;;;;;23.73;15.98;;;7.40;99.90;;;;;;5025942;28;20044;-81
2023/04/08 08:21:17;;;;;;;22.80;14.95;;;7.50;99.90;;;;;;5027183;28;20052;-83
2023/04/08 08:23:42;;;;;;;22.58;14.50;;;7.60;99.90;;;;;;5027188;28;20045;-82
2023/04/08 08:26:09;;;;;;;22.30;14.05;;;7.70;99.90;;;;;;5025447;28;20057;-82
2023/04/08 08:28:35;;;;;;;21.65;13.85;;;7.80;99.90;;;;;;4994521;28;1073794;-81
2023/04/08 08:31:04;;;;;;;22.75;13.65;;;7.90;99.90;;;;;;5033825;28;20052;-82
2023/04/08 08:33:30;;;;;;;22.77;13.68;;;8.10;99.90;;;;;;5033928;28;20057;-82
2023/04/08 08:35:57;;;;;;;20.75;13.95;;;8.20;99.90;;;;;;5029002;28;20049;-82
2023/04/08 08:38:23;;;;;;;21.55;14.30;;;8.30;99.90;;;;;;5026101;28;20146;-86
2023/04/08 08:40:54;;;;;;;19.75;13.50;;;8.50;99.90;;;;;;5032178;28;20484;-82
2023/04/08 08:43:20;;;;;;;21.13;13.43;;;8.70;99.90;;;;;;5028885;28;21710;-81
2023/04/08 08:45:46;;;;;;;22.85;13.35;;;8.80;99.90;;;;;;5030817;28;20600;-82
2023/04/08 08:48:11;;;;;;;20.65;13.02;;;8.80;99.90;;;;;;5030419;28;20037;-82
2023/04/08 08:50:37;;;;;;;20.35;13.23;;;8.90;99.90;;;;;;5027012;28;20049;-82
2023/04/08 08:53:03;;;;;;;21.92;14.18;;;8.90;99.90;;;;;;5031398;28;20652;-82
2023/04/08 08:55:37;;;;;;;21.70;13.15;;;8.90;99.90;;;;;;5029109;28;20041;-82
2023/04/08 08:58:03;;;;;;;19.95;12.98;;;8.90;99.90;;;;;;5025364;28;20499;-82
2023/04/08 09:00:35;;;;;;;21.88;13.68;;;8.90;99.90;;;;;;5033108;28;20048;-82
2023/04/08 09:03:30;;;;;;;18.65;12.75;;;8.80;99.90;;;;;;5025872;28;20577;-82
2023/04/08 09:05:57;;;;;;;;;;;8.70;99.90;;;;;;5013347;28;20061;-81
2023/04/08 09:08:31;;;;;;;21.70;13.02;;;8.70;99.90;;;;;;5031071;28;19929;-82
2023/04/08 09:11:11;;;;;;;17.92;12.52;;;8.60;99.90;;;;;;5033759;28;20158;-82
2023/04/08 09:13:36;;;;;;;21.80;12.90;;;8.50;99.90;;;;;;5031740;28;20052;-82
2023/04/08 09:16:08;;;;;;;19.08;13.57;;;8.50;99.90;;;;;;5027149;28;20033;-83
2023/04/08 09:18:34;;;;;;;20.58;13.93;;;8.40;99.90;;;;;;5031684;28;20522;-83
2023/04/08 09:21:03;;;;;;;20.33;13.95;;;8.40;99.90;;;;;;5027535;28;20081;-93
2023/04/08 09:23:43;;;;;;;20.95;13.68;;;8.40;99.90;;;;;;5025864;28;20037;-81
2023/04/08 09:26:27;;;;;;;21.90;14.15;;;8.50;99.90;;;;;;5025872;28;20077;-80
2023/04/08 09:28:58;;;;;;;;;;;8.50;99.90;;;;;;5024149;28;20053;-81
2023/04/08 09:31:26;;;;;;;19.98;13.10;;;8.60;99.90;;;;;;5023586;28;19920;-81
2023/04/08 09:33:54;;;;;;;19.35;13.70;;;8.70;99.90;;;;;;5021759;28;20479;-81
2023/04/08 09:36:20;;;;;;;20.23;14.10;;;8.90;99.90;;;;;;5022451;28;20041;-80
2023/04/08 09:38:45;;;;;;;19.88;13.38;;;8.80;99.90;;;;;;5026056;28;20037;-82
2023/04/08 09:41:22;;;;;;;25.38;14.85;;;8.80;99.90;;;;;;5026340;28;20135;-79
2023/04/08 09:43:51;;;;;;;17.27;11.73;;;8.90;99.90;;;;;;5023935;28;20049;-79
2023/04/08 09:46:25;;;;;;;21.38;13.68;;;8.90;99.90;;;;;;5025504;28;20048;-80
2023/04/08 09:49:08;;;;;;;17.02;12.60;;;9.00;99.90;;;;;;5022871;28;20084;-81
2023/04/08 09:52:01;;;;;;;17.90;12.07;;;9.00;99.90;;;;;;5025583;28;20091;-80
2023/04/08 09:54:51;;;;;;;23.27;12.25;;;9.00;99.90;;;;;;5025951;28;20221;-81
2023/04/08 09:57:38;;;;;;;18.08;11.77;;;9.00;99.90;;;;;;5025090;28;20057;-81
2023/04/08 10:00:12;;;;;;;19.67;13.15;;;8.90;99.90;;;;;;5029786;28;20056;-80
2023/04/08 10:02:56;;;;;;;19.30;12.82;;;8.90;99.90;;;;;;5026379;28;20769;-81
2023/04/08 10:05:23;;;;;;;20.70;12.33;;;8.90;99.90;;;;;;5027830;28;20077;-80
2023/04/08 10:07:50;;;;;;;17.98;11.50;;;8.90;99.90;;;;;;5026908;28;20480;-81
2023/04/08 10:10:16;;;;;;;27.85;12.60;;;8.90;99.90;;;;;;5025184;28;20838;-80
2023/04/08 10:12:42;;;;;;;19.98;12.75;;;8.90;99.90;;;;;;5011395;28;20072;-80
2023/04/08 10:15:28;;;;;;;17.90;11.27;;;8.90;99.90;;;;;;5022389;28;20128;-81
2023/04/08 10:18:17;;;;;;;15.82;10.48;;;9.10;99.90;;;;;;5022333;28;20107;-79
2023/04/08 10:20:44;;;;;;;17.17;9.90;;;8.90;99.90;;;;;;5021252;28;20084;-80
2023/04/08 10:23:48;;;;;;;14.38;10.15;;;9.00;99.90;;;;;;5021507;28;20483;-80
2023/04/08 10:26:32;;;;;;;14.50;9.32;;;8.90;99.90;;;;;;5022432;28;20594;-80
2023/04/08 10:29:17;;;;;;;13.60;8.80;;;9.00;99.90;;;;;;5028891;28;20057;-79
2023/04/08 10:31:44;;;;;;;16.80;9.75;;;9.00;99.90;;;;;;5020363;28;20053;-81
2023/04/08 10:34:26;;;;;;;16.67;10.18;;;9.00;99.90;;;;;;5022338;28;20076;-80
2023/04/08 10:36:54;;;;;;;14.38;9.15;;;9.00;99.90;;;;;;5024879;28;20351;-80
2023/04/08 10:39:20;;;;;;;17.35;10.30;;;9.00;99.90;;;;;;5023037;28;20292;-80
2023/04/08 10:41:48;;;;;;;16.63;10.52;;;9.10;99.90;;;;;;5027813;28;20064;-80
2023/04/08 10:44:19;;;;;;;15.98;10.00;;;9.10;99.90;;;;;;5026142;28;20041;-80
2023/04/08 10:46:50;;;;;;;15.82;9.93;;;9.20;99.90;;;;;;5030070;28;20041;-80
2023/04/08 10:49:16;;;;;;;19.02;10.43;;;9.30;99.90;;;;;;5026495;28;20069;-81
2023/04/08 10:51:43;;;;;;;19.33;10.20;;;9.30;99.90;;;;;;5020859;28;20382;-81
2023/04/08 10:54:15;;;;;;;16.33;10.23;;;9.30;99.90;;;;;;5010001;28;20129;-81
2023/04/08 10:56:49;;;;;;;16.52;10.57;;;9.40;99.90;;;;;;5020287;28;20053;-80
2023/04/08 10:59:18;;;;;;;18.17;11.52;;;9.50;99.90;;;;;;5023855;28;20049;-80
2023/04/08 11:01:45;;;;;;;15.07;10.20;;;9.50;99.90;;;;;;5029471;28;20409;-80
2023/04/08 11:04:15;;;;;;;17.23;11.05;;;9.60;99.90;;;;;;5023133;28;20049;-80
2023/04/08 11:06:43;;;;;;;14.68;9.90;;;9.70;99.90;;;;;;5022996;28;20041;-79
2023/04/08 11:09:08;;;;;;;16.80;11.25;;;9.70;99.90;;;;;;5024869;28;20097;-80
2023/04/08 11:11:34;;;;;;;19.02;11.80;;;9.70;99.90;;;;;;5025546;28;20207;-80
2023/04/08 11:14:01;;;;;;;17.30;10.30;;;9.70;99.90;;;;;;5025108;28;20037;-80
2023/04/08 11:16:27;;;;;;;19.17;11.38;;;9.80;99.90;;;;;;5027145;28;20566;-79
2023/04/08 11:18:54;;;;;;;19.33;12.43;;;9.80;99.90;;;;;;5024536;28;20056;-79
2023/04/08 11:21:22;;;;;;;18.10;11.00;;;9.90;99.90;;;;;;5022179;28;20122;-81
2023/04/08 11:23:51;;;;;;;20.45;12.35;;;9.90;99.90;;;;;;5026985;28;20049;-82
2023/04/08 11:26:18;;;;;;;21.40;14.43;;;10.00;99.90;;;;;;5030946;28;20049;-83
2023/04/08 11:28:45;;;;;;;21.58;12.65;;;10.10;99.90;;;;;;5025565;28;20356;-87
2023/04/08 11:31:12;;;;;;;22.27;13.85;;;10.10;99.90;;;;;;5032546;28;20049;-86
2023/04/08 11:33:44;;;;;;;23.95;13.52;;;10.10;99.90;;;;;;5023826;28;20045;-89
2023/04/08 11:36:11;;;;;;;22.00;14.00;;;10.20;99.90;;;;;;5023178;28;20122;-85
2023/04/08 11:38:40;;;;;;;24.30;15.90;;;10.20;99.90;;;;;;5028994;28;20395;-86
2023/04/08 11:41:06;;;;;;;26.55;16.60;;;10.30;99.90;;;;;;5022212;28;20053;-86
2023/04/08 11:43:31;;;;;;;26.33;16.17;;;10.30;99.90;;;;;;5020939;28;20268;-85
2023/04/08 11:45:57;;;;;;;25.73;17.33;;;10.20;99.90;;;;;;5017788;28;20622;-86
2023/04/08 11:48:23;;;;;;;28.92;18.17;;;10.20;99.90;;;;;;5027710;28;20064;-85
2023/04/08 11:51:02;;;;;;;31.65;19.90;;;10.20;99.90;;;;;;5027204;28;20045;-85
2023/04/08 11:53:28;;;;;;;32.00;19.35;;;10.20;99.90;;;;;;5025636;28;20096;-86
2023/04/08 11:55:54;;;;;;;29.58;18.73;;;10.30;99.90;;;;;;5030226;28;20037;-86
2023/04/08 11:58:20;;;;;;;25.75;17.27;;;10.20;99.90;;;;;;5023255;28;20045;-85
2023/04/08 12:00:46;;;;;;;30.83;18.98;;;10.20;99.90;;;;;;5021054;28;20052;-87
2023/04/08 12:03:12;;;;;;;26.55;17.08;;;10.10;99.90;;;;;;5029359;28;20068;-85
2023/04/08 12:05:38;;;;;;;29.33;17.75;;;10.10;99.90;;;;;;5021201;28;20590;-88
2023/04/08 12:08:07;;;;;;;28.33;17.70;;;10.10;99.90;;;;;;5032911;28;20044;-86
2023/04/08 12:10:33;;;;;;;29.42;17.88;;;10.10;99.90;;;;;;5032679;28;20053;-86
2023/04/08 12:12:58;;;;;;;27.25;16.73;;;10.10;99.90;;;;;;5027888;28;20353;-86
2023/04/08 12:15:27;;;;;;;29.75;17.20;;;10.10;99.90;;;;;;5035271;28;20033;-86
2023/04/08 12:17:53;;;;;;;27.70;15.68;;;10.10;99.90;;;;;;5016301;28;20064;-88
2023/04/08 12:20:19;;;;;;;30.50;16.52;;;10.10;99.90;;;;;;5024626;28;20075;-88
2023/04/08 12:22:44;;;;;;;28.38;17.83;;;10.10;99.90;;;;;;5025544;28;20351;-85
2023/04/08 12:25:11;;;;;;;27.45;16.70;;;10.10;99.90;;;;;;5034382;28;20502;-86
2023/04/08 12:27:37;;;;;;;26.65;15.80;;;10.10;99.90;;;;;;5028428;28;20053;-86
2023/04/08 12:30:03;;;;;;;30.88;15.52;;;10.10;99.90;;;;;;5025732;28;20065;-86
2023/04/08 12:32:29;;;;;;;29.13;16.92;;;10.20;99.90;;;;;;5032171;28;20110;-86
2023/04/08 12:34:54;;;;;;;30.35;16.83;;;9.40;99.90;;;;;;5039934;28;20044;-86
2023/04/08 12:37:20;;;;;;;32.88;17.90;;;10.20;99.90;;;;;;5022524;28;20057;-87
2023/04/08 12:39:46;;;;;;;28.63;17.38;;;10.30;99.90;;;;;;5036521;28;20648;-86
2023/04/08 12:42:12;;;;;;;28.25;16.98;;;10.10;99.90;;;;;;5036200;28;20037;-87